Miami, Florida
Traffic Map
Current Weather Conditions
Miami, Florida
Broken Clouds
Broken Clouds
26°
Feels Like: 27°
Wind Chill: 26° Ceiling: 12000
Heat Index: 27° Visibility: 10mi
Dew Point: 18° Wind: 9mph
Humidity: 62% Direction: 110° (ESE)
Pressure: 30.07in Gusts: 0mph
Raw Report DataKMIA 211753Z 11008KT 10SM SCT030 BKN120 BKN250 26/18 A3007 RMK AO2 SLP184 T02560178 10267 20189 58014
Traffic Incident Summary
Active as of:
Severity:
Category:
InformationThere was an issue retrieving the traffic information for this location. Please try a different location or try again shortly.
Advertisements
Track Severe Weather on mobile